地図

経路データ

SID SEASON NUMBER BASIN SUBBASIN NAME ISO_TIME NATURE LAT LON WMO_WIND WMO_PRES WMO_AGENCY TRACK_TYPE DIST2LAND LANDFALL IFLAG USA_AGENCY USA_ATCF_ID USA_LAT USA_LON USA_RECORD USA_STATUS USA_WIND USA_PRES USA_SSHS USA_R34_NE USA_R34_SE USA_R34_SW USA_R34_NW USA_R50_NE USA_R50_SE USA_R50_SW USA_R50_NW USA_R64_NE USA_R64_SE USA_R64_SW USA_R64_NW USA_POCI USA_ROCI USA_RMW USA_EYE TOKYO_LAT TOKYO_LON TOKYO_GRADE TOKYO_WIND TOKYO_PRES TOKYO_R50_DIR TOKYO_R50_LONG TOKYO_R50_SHORT TOKYO_R30_DIR TOKYO_R30_LONG TOKYO_R30_SHORT TOKYO_LAND CMA_LAT CMA_LON CMA_CAT CMA_WIND CMA_PRES HKO_LAT HKO_LON HKO_CAT HKO_WIND HKO_PRES NEWDELHI_LAT NEWDELHI_LON NEWDELHI_GRADE NEWDELHI_WIND NEWDELHI_PRES NEWDELHI_CI NEWDELHI_DP NEWDELHI_POCI REUNION_LAT REUNION_LON REUNION_TYPE REUNION_WIND REUNION_PRES REUNION_TNUM REUNION_CI REUNION_RMW REUNION_R34_NE REUNION_R34_SE REUNION_R34_SW REUNION_R34_NW REUNION_R50_NE REUNION_R50_SE REUNION_R50_SW REUNION_R50_NW REUNION_R64_NE REUNION_R64_SE REUNION_R64_SW REUNION_R64_NW BOM_LAT BOM_LON BOM_TYPE BOM_WIND BOM_PRES BOM_TNUM BOM_CI BOM_RMW BOM_R34_NE BOM_R34_SE BOM_R34_SW BOM_R34_NW BOM_R50_NE BOM_R50_SE BOM_R50_SW BOM_R50_NW BOM_R64_NE BOM_R64_SE BOM_R64_SW BOM_R64_NW BOM_ROCI BOM_POCI BOM_EYE BOM_POS_METHOD BOM_PRES_METHOD NADI_LAT NADI_LON NADI_CAT NADI_WIND NADI_PRES WELLINGTON_LAT WELLINGTON_LON WELLINGTON_WIND WELLINGTON_PRES DS824_LAT DS824_LON DS824_STAGE DS824_WIND DS824_PRES TD9636_LAT TD9636_LON TD9636_STAGE TD9636_WIND TD9636_PRES TD9635_LAT TD9635_LON TD9635_WIND TD9635_PRES TD9635_ROCI NEUMANN_LAT NEUMANN_LON NEUMANN_CLASS NEUMANN_WIND NEUMANN_PRES MLC_LAT MLC_LON MLC_CLASS MLC_WIND MLC_PRES USA_GUST BOM_GUST BOM_GUST_PER REUNION_GUST REUNION_GUST_PER USA_SEAHGT USA_SEARAD_NE USA_SEARAD_SE USA_SEARAD_SW USA_SEARAD_NW STORM_SPEED STORM_DIR
1884011S10063 1884 1 SI MM NOT_NAMED 1884-01-11 00:00:00 TS -10.0000 63.0000 main 1265 1235 _________O____ -1 -10.0000 63.0000 TC 7 223
1884011S10063 1884 1 SI MM NOT_NAMED 1884-01-11 03:00:00 TS -10.2475 62.7625 main 1235 1191 _________P____ -1 -10.2475 62.7625 TC 7 225
1884011S10063 1884 1 SI MM NOT_NAMED 1884-01-11 06:00:00 TS -10.5000 62.5000 main 1191 1157 _________O____ -1 -10.5000 62.5000 TC 8 227
1884011S10063 1884 1 SI MM NOT_NAMED 1884-01-11 09:00:00 TS -10.7575 62.2000 main 1147 1113 _________P____ -1 -10.7575 62.2000 TC 8 230
1884011S10063 1884 1 SI MM NOT_NAMED 1884-01-11 12:00:00 TS -11.0000 61.9000 main 1113 1084 _________O____ -1 -11.0000 61.9000 TC 7 231
1884011S10063 1884 1 SI MM NOT_NAMED 1884-01-11 15:00:00 TS -11.2075 61.6424 main 1079 1051 _________P____ -1 -11.2075 61.6424 TC 6 231
1884011S10063 1884 1 SI MM NOT_NAMED 1884-01-11 18:00:00 TS -11.4000 61.4000 main 1051 1018 _________O____ -1 -11.4000 61.4000 TC 6 231
1884011S10063 1884 1 SI MM NOT_NAMED 1884-01-11 21:00:00 TS -11.6075 61.1350 main 1018 989 _________P____ -1 -11.6075 61.1350 TC 6 231
1884011S10063 1884 1 SI MM NOT_NAMED 1884-01-12 00:00:00 TS -11.8000 60.9000 main 989 961 _________O____ -1 -11.8000 60.9000 TC 5 228
1884011S10063 1884 1 SI MM NOT_NAMED 1884-01-12 03:00:00 TS -11.9650 60.7275 main 961 947 _________P____ -1 -11.9650 60.7275 TC 4 224
1884011S10063 1884 1 SI MM NOT_NAMED 1884-01-12 06:00:00 TS -12.1000 60.6000 main 947 933 _________O____ -1 -12.1000 60.6000 TC 3 223
1884011S10063 1884 1 SI MM NOT_NAMED 1884-01-12 09:00:00 TS -12.2000 60.5000 main 933 919 _________P____ -1 -12.2000 60.5000 TC 3 224
1884011S10063 1884 1 SI MM NOT_NAMED 1884-01-12 12:00:00 TS -12.3000 60.4000 main 919 905 _________O____ -1 -12.3000 60.4000 TC 4 224
1884011S10063 1884 1 SI MM NOT_NAMED 1884-01-12 15:00:00 TS -12.4500 60.2500 main 894 877 _________P____ -1 -12.4500 60.2500 TC 4 224
1884011S10063 1884 1 SI MM NOT_NAMED 1884-01-12 18:00:00 TS -12.6000 60.1000 main 877 863 _________O____ -1 -12.6000 60.1000 TC 4 224
1884011S10063 1884 1 SI MM NOT_NAMED 1884-01-12 21:00:00 TS -12.7075 59.9925 main 863 849 _________P____ -1 -12.7075 59.9925 TC 3 224
1884011S10063 1884 1 SI MM NOT_NAMED 1884-01-13 00:00:00 TS -12.8000 59.9000 main 849 836 _________O____ -1 -12.8000 59.9000 TC 3 226
1884011S10063 1884 1 SI MM NOT_NAMED 1884-01-13 03:00:00 TS -12.8925 59.7925 main 836 822 _________P____ -1 -12.8925 59.7925 TC 3 224
1884011S10063 1884 1 SI MM NOT_NAMED 1884-01-13 06:00:00 TS -13.0000 59.7000 main 822 811 _________O____ -1 -13.0000 59.7000 TC 3 209
1884011S10063 1884 1 SI MM NOT_NAMED 1884-01-13 09:00:00 TS -13.1425 59.6500 main 809 787 _________P____ -1 -13.1425 59.6500 TC 3 197
1884011S10063 1884 1 SI MM NOT_NAMED 1884-01-13 12:00:00 TS -13.3000 59.6000 main 787 773 _________O____ -1 -13.3000 59.6000 TC 3 205
1884011S10063 1884 1 SI MM NOT_NAMED 1884-01-13 15:00:00 TS -13.4425 59.5075 main 773 749 _________P____ -1 -13.4425 59.5075 TC 4 213
1884011S10063 1884 1 SI MM NOT_NAMED 1884-01-13 18:00:00 TS -13.6000 59.4000 main 749 725 _________O____ -1 -13.6000 59.4000 TC 4 210
1884011S10063 1884 1 SI MM NOT_NAMED 1884-01-13 21:00:00 TS -13.8075 59.2925 main 725 700 _________P____ -1 -13.8075 59.2925 TC 4 206
1884011S10063 1884 1 SI MM NOT_NAMED 1884-01-14 00:00:00 TS -14.0000 59.2000 main 700 687 _________O____ -1 -14.0000 59.2000 TC 3 207
1884011S10063 1884 1 SI MM NOT_NAMED 1884-01-14 03:00:00 TS -14.1075 59.1350 main 687 676 _________P____ -1 -14.1075 59.1350 TC 2 207
1884011S10063 1884 1 SI MM NOT_NAMED 1884-01-14 06:00:00 TS -14.2000 59.1000 main 676 665 _________O____ -1 -14.2000 59.1000 TC 2 188
1884011S10063 1884 1 SI MM NOT_NAMED 1884-01-14 09:00:00 TS -14.3425 59.0925 main 665 644 _________P____ -1 -14.3425 59.0925 TC 3 0
1884011S10063 1884 1 SI MM NOT_NAMED 1884-01-14 12:00:00 TS -14.5000 59.1000 main 644 633 _________O____ -1 -14.5000 59.1000 TC 3 0
1884011S10063 1884 1 SI MM NOT_NAMED 1884-01-14 15:00:00 TS -14.6575 59.0925 main 622 611 _________P____ -1 -14.6575 59.0925 TC 3 0
1884011S10063 1884 1 SI MM NOT_NAMED 1884-01-14 18:00:00 TS -14.8000 59.1000 main 611 600 _________O____ -1 -14.8000 59.1000 TC 3 167
1884011S10063 1884 1 SI MM NOT_NAMED 1884-01-14 21:00:00 TS -14.9075 59.1500 main 603 592 _________P____ -1 -14.9075 59.1500 TC 2 153
1884011S10063 1884 1 SI MM NOT_NAMED 1884-01-15 00:00:00 TS -15.0000 59.2000 main 592 581 _________O____ -1 -15.0000 59.2000 TC 2 167
1884011S10063 1884 1 SI MM NOT_NAMED 1884-01-15 03:00:00 TS -15.1075 59.2000 main 581 570 _________P____ -1 -15.1075 59.2000 TC 2 172
1884011S10063 1884 1 SI MM NOT_NAMED 1884-01-15 06:00:00 TS -15.2000 59.2000 main 570 570 _________O____ -1 -15.2000 59.2000 TC 1 164
1884011S10063 1884 1 SI MM NOT_NAMED 1884-01-15 09:00:00 TS -15.2500 59.2425 main 570 560 _________P____ -1 -15.2500 59.2425 TC 1 137
1884011S10063 1884 1 SI MM NOT_NAMED 1884-01-15 12:00:00 TS -15.3000 59.3000 main 563 552 _________O____ -1 -15.3000 59.3000 TC 2 146
1884011S10063 1884 1 SI MM NOT_NAMED 1884-01-15 15:00:00 TS -15.4000 59.3500 main 555 545 _________P____ -1 -15.4000 59.3500 TC 2 153
1884011S10063 1884 1 SI MM NOT_NAMED 1884-01-15 18:00:00 TS -15.5000 59.4000 main 545 545 _________O____ -1 -15.5000 59.4000 TC 2 149
1884011S10063 1884 1 SI MM NOT_NAMED 1884-01-15 21:00:00 TS -15.5350 59.4351 main 545 538 _________P____ -1 -15.5350 59.4351 TC 1 137
1884011S10063 1884 1 SI MM NOT_NAMED 1884-01-16 00:00:00 TS -15.6000 59.5000 main 538 521 _________O____ -1 -15.6000 59.5000 TC 3 143
1884011S10063 1884 1 SI MM NOT_NAMED 1884-01-16 03:00:00 TS -15.7850 59.6275 main 521 509 _________P____ -1 -15.7850 59.6275 TC 5 144
1884011S10063 1884 1 SI MM NOT_NAMED 1884-01-16 06:00:00 TS -16.0000 59.8000 main 509 504 _________O____ -1 -16.0000 59.8000 TC 5 136
1884011S10063 1884 1 SI MM NOT_NAMED 1884-01-16 09:00:00 TS -16.1500 59.9926 main 509 494 _________P____ -1 -16.1500 59.9926 TC 5 128
1884011S10063 1884 1 SI MM NOT_NAMED 1884-01-16 12:00:00 TS -16.3000 60.2000 main 500 493 _________O____ -1 -16.3000 60.2000 TC 5 132
1884011S10063 1884 1 SI MM NOT_NAMED 1884-01-16 15:00:00 TS -16.5000 60.4000 main 493 488 _________P____ -1 -16.5000 60.4000 TC 6 136
1884011S10063 1884 1 SI MM NOT_NAMED 1884-01-16 18:00:00 TS -16.7000 60.6000 main 488 486 _________O____ -1 -16.7000 60.6000 TC 5 133
1884011S10063 1884 1 SI MM NOT_NAMED 1884-01-16 21:00:00 TS -16.8500 60.7926 main 493 483 _________P____ -1 -16.8500 60.7926 TC 5 128
1884011S10063 1884 1 SI MM NOT_NAMED 1884-01-17 00:00:00 TS -17.0000 61.0000 main 491 490 _________O____ -1 -17.0000 61.0000 TC 6 129
1884011S10063 1884 1 SI MM NOT_NAMED 1884-01-17 03:00:00 TS -17.2000 61.2425 main 491 491 _________P____ -1 -17.2000 61.2425 TC 6 130
1884011S10063 1884 1 SI MM NOT_NAMED 1884-01-17 06:00:00 TS -17.4000 61.5000 main 501 501 _________O____ -1 -17.4000 61.5000 TC 6 127
1884011S10063 1884 1 SI MM NOT_NAMED 1884-01-17 09:00:00 TS -17.5725 61.7650 main 514 514 _________P____ -1 -17.5725 61.7650 TC 6 122
1884011S10063 1884 1 SI MM NOT_NAMED 1884-01-17 12:00:00 TS -17.7000 62.0000 main 526 526 _________O____ -1 -17.7000 62.0000 TC 4 116
1884011S10063 1884 1 SI MM NOT_NAMED 1884-01-17 15:00:00 TS -17.7574 62.1651 main 538 538 _________P____ -1 -17.7574 62.1651 TC 3 109
1884011S10063 1884 1 SI MM NOT_NAMED 1884-01-17 18:00:00 TS -17.8000 62.3000 main 547 547 _________O____ -1 -17.8000 62.3000 TC 3 116
1884011S10063 1884 1 SI MM NOT_NAMED 1884-01-17 21:00:00 TS -17.8774 62.4201 main 552 552 _________P____ -1 -17.8774 62.4201 TC 3 125
1884011S10063 1884 1 SI MM NOT_NAMED 1884-01-18 00:00:00 TS -18.0000 62.6000 main 566 566 _________O____ -1 -18.0000 62.6000 TC 6 122
1884011S10063 1884 1 SI MM NOT_NAMED 1884-01-18 03:00:00 TS -18.1776 62.9274 main 584 584 _________P____ -1 -18.1776 62.9274 TC 8 121
1884011S10063 1884 1 SI MM NOT_NAMED 1884-01-18 06:00:00 TS -18.4000 63.3000 main 614 614 _________O____ -1 -18.4000 63.3000 TC 8 126
1884011S10063 1884 1 SI MM NOT_NAMED 1884-01-18 09:00:00 TS -18.6499 63.6150 main 637 633 _________P____ -1 -18.6499 63.6150 TC 8 131
1884011S10063 1884 1 SI MM NOT_NAMED 1884-01-18 12:00:00 TS -18.9000 63.9000 main 657 657 _________O____ -1 -18.9000 63.9000 TC 7 133
1884011S10063 1884 1 SI MM NOT_NAMED 1884-01-18 15:00:00 TS -19.1149 64.1501 main 683 680 _________P____ -1 -19.1149 64.1501 TC 6 130
1884011S10063 1884 1 SI MM NOT_NAMED 1884-01-18 18:00:00 TS -19.3000 64.4000 main 699 699 _________O____ -1 -19.3000 64.4000 TC 6 123
1884011S10063 1884 1 SI MM NOT_NAMED 1884-01-18 21:00:00 TS -19.4576 64.7075 main 726 726 _________P____ -1 -19.4576 64.7075 TC 6 118
1884011S10063 1884 1 SI MM NOT_NAMED 1884-01-19 00:00:00 TS -19.6000 65.0000 main 756 756 _________O____ -1 -19.6000 65.0000 TC 6 122
1884011S10063 1884 1 SI MM NOT_NAMED 1884-01-19 03:00:00 TS -19.7574 65.2076 main 774 774 _________P____ -1 -19.7574 65.2076 TC 5 129
1884011S10063 1884 1 SI MM NOT_NAMED 1884-01-19 06:00:00 TS -19.9000 65.4000 main 794 794 _________O____ -1 -19.9000 65.4000 TC 5 121
1884011S10063 1884 1 SI MM NOT_NAMED 1884-01-19 09:00:00 TS -20.0075 65.6500 main 825 825 _________P____ -1 -20.0075 65.6500 TC 5 113
1884011S10063 1884 1 SI MM NOT_NAMED 1884-01-19 12:00:00 TS -20.1000 65.9000 main 845 845 _________O____ -1 -20.1000 65.9000 TC 5 114
1884011S10063 1884 1 SI MM NOT_NAMED 1884-01-19 15:00:00 TS -20.1999 66.1075 main 865 865 _________P____ -1 -20.1999 66.1075 TC 4 118
1884011S10063 1884 1 SI MM NOT_NAMED 1884-01-19 18:00:00 TS -20.3000 66.3000 main 886 886 _________O____ -1 -20.3000 66.3000 TC 4 119
1884011S10063 1884 1 SI MM NOT_NAMED 1884-01-19 21:00:00 TS -20.4001 66.4974 main 906 906 _________P____ -1 -20.4001 66.4974 TC 4 118
1884011S10063 1884 1 SI MM NOT_NAMED 1884-01-20 00:00:00 TS -20.5000 66.7000 main 927 _________O____ -1 -20.5000 66.7000 TC 4 118

IBTrACS Databaseについて

本データベースは、米国NOAAが公開する1842年以降の世界の熱帯低気圧のベストトラックデータアーカイブInternational Best Track Archive for Climate Stewardship (IBTrACS)を、ウェブで閲覧しやすい形式に変換したものです。

最終更新日:2021-12-01